Detall de PIREP

Printer-friendly versionPDF version

[2015/12/24 08:00:00]
Flight IATA:CT1004
Pilot Number:012
Company ICAO:CAT
Aircraft Type:A320/E
PAX:150
Departing Airport: LEVT
Destination Airport: LERS
Alternate Airport:LEBL
Online: VATSIM
Route:PPN UM601 POSSY
Flight Level:F280
No Slew and time accel
No pause
Crash detect
Detect pilot in Cockpit between each 30 and 45 minutes
08:00 Zero fuel Weight: 122654 Lbs, Fuel Weight: 11040 Lbs
08:00 VATSIM:LEVT 240730Z 24006KT 9999 SCT010 BKN050 05/04 Q1027
08:00 VATSIM:LERS 240730Z 00000KT 5000 BR FEW028 BKN033 12/12 Q1029
08:00 X-MAS CHARTER
08:07 Parking Brakes off
08:13 Take-off
08:13 Take off Weight: 132874 Lbs
08:13 Wind: 237º @ 009 Knots Heading: 216º
08:13 POS N42º 52´ 59´´ W002º 43´ 27´´
08:13 Flaps:3 at 169 Knots
08:13 Gear Up: 171 Knots
08:13 Flaps:2 at 175 Knots
08:13 Flaps:0 at 182 Knots
08:24 TOC
08:24 Fuel Weight: 7238 Lb
08:28 Wind:231º@036 Knots Heading: 119º Ground Speed: 464 Knots Altitude 28418 ft
08:34 TOD
08:34 Fuel Weight: 5997 Lb
08:43 Wind:239º@011 Knots Heading: 110º Ground Speed: 315 Knots Altitude 12791 ft
08:53 Flaps:1 at 193 Knots
08:53 Flaps:3 at 193 Knots
08:53 Gear Down: 182 Knots
08:53 Flaps:4 at 180 Knots
08:54 Flaps:5 at 159 Knots
08:58 Wind:000º@000 Knots Heading: 248º Ground Speed: 140 Knots Altitude 646 ft
08:58 TouchDown:Rate -190 ft/min Speed: 133 Knots
08:58 Flaps:0 at 44 Knots
08:58 VATSIM:LERS 240830Z VRB02KT 7000 FEW023 BKN033 13/13 Q1029
08:58 Land
08:58 Wind:000º@000 Knots
08:58 Heading: 247º
08:58 Flight Duration: 00:45
08:58 Landing Weight: 126755 Lbs
08:58 POS N41º 08´ 49´´ E001º 09´ 55´´
09:00 Parking brakes on
09:00 Block to Block Duration: 00:53
09:00 Final Fuel: 3972 Lbls
09:00 Spent Fuel: 7067 Lbls
09:00 Flight Length: 253 NM
09:00 TOD Land Length: 108 NM

Exportar CSV

Powered by Drupal - Modified by Danger4k